createdAt,value
2018-10-18T00:02:53.366Z,21.53
2018-10-18T00:07:50.117Z,23.93
2018-10-18T00:12:46.815Z,19.47
2018-10-18T00:17:45.230Z,20.93
2018-10-18T00:22:42.596Z,20.97
2018-10-18T00:27:39.804Z,21.73
2018-10-18T00:32:36.546Z,21.67
2018-10-18T00:37:33.269Z,23.93
2018-10-18T00:42:30.037Z,21.50
2018-10-18T00:47:26.726Z,24.30
2018-10-18T00:52:23.417Z,24.77
2018-10-18T00:57:20.154Z,21.47
2018-10-18T01:02:16.980Z,26.03
2018-10-18T01:07:13.650Z,24.47
2018-10-18T01:12:10.460Z,20.67
2018-10-18T01:17:07.168Z,22.13
2018-10-18T01:22:05.229Z,24.90
2018-10-18T01:27:01.952Z,25.13
2018-10-18T01:31:59.298Z,21.00
2018-10-18T01:36:56.135Z,22.00
2018-10-18T01:41:52.963Z,23.07
2018-10-18T01:46:49.737Z,24.77
2018-10-18T01:51:46.521Z,25.57
2018-10-18T01:56:43.303Z,30.80
2018-10-18T02:01:40.053Z,22.73
2018-10-18T02:06:36.831Z,22.67
2018-10-18T02:11:33.611Z,22.23
2018-10-18T02:16:30.346Z,25.27
2018-10-18T02:21:27.085Z,23.70
2018-10-18T02:26:23.979Z,25.70
2018-10-18T02:31:20.756Z,22.70
2018-10-18T02:36:17.551Z,23.53
2018-10-18T02:41:14.201Z,25.40
2018-10-18T02:46:11.008Z,25.93
2018-10-18T02:51:07.921Z,24.93
2018-10-18T02:56:04.610Z,28.13
2018-10-18T03:01:01.297Z,25.63
2018-10-18T03:05:58.497Z,29.43
2018-10-18T03:10:55.234Z,29.93
2018-10-18T03:15:51.902Z,26.03
2018-10-18T03:20:48.643Z,25.97
2018-10-18T03:25:45.319Z,27.10
2018-10-18T03:30:42.208Z,22.87
2018-10-18T03:35:38.913Z,23.73
2018-10-18T03:40:35.658Z,20.97
2018-10-18T03:45:32.500Z,22.60
2018-10-18T03:50:29.222Z,21.67
2018-10-18T03:55:26.108Z,20.67
2018-10-18T04:00:22.863Z,21.20
2018-10-18T04:05:19.562Z,23.10
2018-10-18T04:10:16.249Z,22.90
2018-10-18T04:15:13.030Z,25.77
2018-10-18T04:20:09.772Z,26.37
2018-10-18T04:25:06.908Z,23.47
2018-10-18T04:30:04.196Z,25.40
2018-10-18T04:35:00.879Z,23.33
2018-10-18T04:39:57.626Z,27.00
2018-10-18T04:44:54.439Z,29.50
2018-10-18T04:49:51.156Z,31.97
2018-10-18T04:54:47.880Z,30.47
2018-10-18T04:59:44.606Z,25.47
2018-10-18T05:04:45.832Z,23.83
2018-10-18T05:09:42.679Z,26.23
2018-10-18T05:14:39.402Z,23.37
2018-10-18T05:19:36.304Z,24.07
2018-10-18T05:24:33.200Z,25.97
2018-10-18T05:29:30.004Z,23.27
2018-10-18T05:34:26.920Z,23.17
2018-10-18T05:39:23.658Z,26.40
2018-10-18T05:44:20.384Z,26.40
2018-10-18T05:49:17.195Z,22.10
2018-10-18T05:54:14.052Z,27.90
2018-10-18T05:59:10.832Z,21.53
2018-10-18T06:04:07.608Z,31.00
2018-10-18T06:09:07.118Z,25.20
2018-10-18T06:14:03.988Z,38.70
2018-10-18T06:19:00.768Z,27.63
2018-10-18T06:23:57.541Z,28.27
2018-10-18T06:28:54.348Z,26.13
2018-10-18T06:33:51.013Z,26.80
2018-10-18T06:38:47.781Z,27.00
2018-10-18T06:43:44.539Z,24.90
2018-10-18T06:48:41.823Z,24.63
2018-10-18T06:53:39.101Z,25.33
2018-10-18T06:58:35.971Z,27.53
2018-10-18T07:03:32.756Z,22.83
2018-10-18T07:08:29.606Z,24.43
2018-10-18T07:13:26.441Z,22.13
2018-10-18T07:18:23.234Z,32.20
2018-10-18T07:23:19.983Z,27.17
2018-10-18T07:28:16.761Z,28.40
2018-10-18T07:33:13.519Z,28.77
2018-10-18T07:38:10.379Z,25.83
2018-10-18T07:43:07.288Z,25.87
2018-10-18T07:48:04.143Z,24.90
2018-10-18T07:53:01.052Z,24.13
2018-10-18T07:57:57.877Z,29.07
2018-10-18T08:02:54.635Z,28.87
2018-10-18T08:07:51.480Z,27.90
2018-10-18T08:12:48.263Z,28.20
2018-10-18T08:17:45.421Z,27.23
2018-10-18T08:22:42.757Z,28.63
2018-10-18T08:27:39.416Z,33.50
2018-10-18T08:32:36.330Z,31.13
2018-10-18T08:37:33.121Z,28.90
2018-10-18T08:42:29.948Z,28.17
2018-10-18T08:47:26.824Z,30.93
2018-10-18T08:52:23.566Z,28.67
2018-10-18T08:57:20.284Z,29.82
2018-10-18T09:02:17.136Z,28.45
2018-10-18T09:07:13.998Z,25.02
2018-10-18T09:12:10.729Z,26.97
2018-10-18T09:17:07.511Z,25.77
2018-10-18T09:22:04.797Z,26.05
2018-10-18T09:27:01.685Z,27.15
2018-10-18T09:31:58.407Z,25.77
2018-10-18T09:36:55.158Z,26.93
2018-10-18T09:41:51.911Z,26.55
2018-10-18T09:46:48.796Z,28.05
2018-10-18T09:51:45.497Z,29.67
2018-10-18T09:56:42.502Z,25.27
2018-10-18T10:01:44.922Z,25.43
2018-10-18T10:06:41.900Z,25.43
2018-10-18T10:11:38.754Z,27.93
2018-10-18T10:16:35.440Z,29.27
2018-10-18T10:21:32.209Z,26.70
2018-10-18T10:26:28.938Z,29.20
2018-10-18T10:31:25.700Z,28.73
2018-10-18T10:36:22.439Z,28.17
2018-10-18T10:41:19.146Z,28.17
2018-10-18T10:46:16.053Z,29.42
2018-10-18T10:51:12.742Z,31.85
2018-10-18T10:56:09.456Z,28.85
2018-10-18T11:01:09.856Z,31.50
2018-10-18T11:06:06.693Z,30.10
2018-10-18T11:11:03.687Z,36.95
2018-10-18T11:16:01.634Z,30.57
2018-10-18T11:20:58.487Z,29.42
2018-10-18T11:25:55.213Z,27.07
2018-10-18T11:30:51.936Z,20.32
2018-10-18T11:35:48.727Z,19.32
2018-10-18T11:40:45.508Z,17.85
2018-10-18T11:45:42.186Z,17.52
2018-10-18T11:50:39.008Z,18.05
2018-10-18T11:55:36.382Z,22.85
2018-10-18T12:00:33.466Z,16.65
2018-10-18T12:05:30.204Z,16.42
2018-10-18T12:10:26.897Z,15.65
2018-10-18T12:15:23.630Z,15.08
2018-10-18T12:20:20.420Z,14.63
2018-10-18T12:25:17.242Z,16.07
2018-10-18T12:30:14.471Z,13.18
2018-10-18T12:35:11.355Z,13.68
2018-10-18T12:40:08.470Z,15.08
2018-10-18T12:45:06.231Z,13.55
2018-10-18T12:50:02.982Z,12.98
2018-10-18T12:54:59.703Z,13.85
2018-10-18T12:59:56.562Z,14.18
2018-10-18T13:04:53.294Z,13.53
2018-10-18T13:09:50.044Z,13.03
2018-10-18T13:14:46.772Z,16.90
2018-10-18T13:19:43.519Z,21.70
2018-10-18T13:24:40.297Z,17.98
2018-10-18T13:29:37.047Z,19.45
2018-10-18T13:34:33.735Z,19.48
2018-10-18T13:39:30.528Z,28.92
2018-10-18T13:44:27.329Z,24.32
2018-10-18T13:49:24.056Z,21.82
2018-10-18T13:54:20.810Z,21.17
2018-10-18T13:59:23.362Z,17.30
2018-10-18T14:04:19.921Z,19.32
2018-10-18T14:09:16.654Z,23.70
2018-10-18T14:14:13.492Z,18.45
2018-10-18T14:19:10.118Z,18.90
2018-10-18T14:24:07.039Z,16.85
2018-10-18T14:29:03.784Z,15.00
2018-10-18T14:34:00.638Z,16.15
2018-10-18T14:38:57.434Z,17.55
2018-10-18T14:43:54.247Z,16.85
2018-10-18T14:48:51.211Z,21.95
2018-10-18T14:53:48.011Z,17.42
2018-10-18T14:58:44.798Z,21.40
2018-10-18T15:03:41.785Z,16.48
2018-10-18T15:08:38.525Z,19.07
2018-10-18T15:13:35.230Z,17.85
2018-10-18T15:18:31.965Z,19.15
2018-10-18T15:23:28.717Z,23.50
2018-10-18T15:28:25.423Z,21.37
2018-10-18T15:33:22.244Z,19.57
2018-10-18T15:38:19.147Z,18.00
2018-10-18T15:43:16.708Z,17.25
2018-10-18T15:48:13.480Z,16.02
2018-10-18T15:53:10.370Z,18.98
2018-10-18T15:58:06.990Z,21.30
2018-10-18T16:03:03.788Z,21.00
2018-10-18T16:08:00.543Z,20.62
2018-10-18T16:12:57.287Z,18.97
2018-10-18T16:17:54.096Z,17.53
2018-10-18T16:22:50.830Z,26.10
2018-10-18T16:27:47.567Z,20.13
2018-10-18T16:32:44.316Z,22.10
2018-10-18T16:37:41.188Z,22.83
2018-10-18T16:42:37.916Z,23.95
2018-10-18T16:47:34.701Z,24.63
2018-10-18T16:52:31.399Z,19.70
2018-10-18T16:57:28.157Z,26.87
2018-10-18T17:02:24.908Z,26.60
2018-10-18T17:07:21.822Z,26.17
2018-10-18T17:12:18.784Z,30.10
2018-10-18T17:17:15.473Z,26.13
2018-10-18T17:22:12.214Z,26.87
2018-10-18T17:27:09.157Z,26.33
2018-10-18T17:32:05.797Z,23.80
2018-10-18T17:37:02.591Z,29.73
2018-10-18T17:41:59.456Z,25.50
2018-10-18T17:46:56.176Z,24.13
2018-10-18T17:51:52.939Z,23.60
2018-10-18T17:56:49.715Z,27.67
2018-10-18T18:01:46.618Z,31.23
2018-10-18T18:06:43.484Z,28.23
2018-10-18T18:11:40.237Z,27.50
2018-10-18T18:16:36.990Z,31.40
2018-10-18T18:21:33.778Z,31.47
2018-10-18T18:26:44.495Z,32.30
2018-10-18T18:31:27.512Z,32.43
2018-10-18T18:36:24.253Z,28.70
2018-10-18T18:41:21.282Z,35.07
2018-10-18T18:46:18.044Z,34.80
2018-10-18T18:51:14.793Z,29.20
2018-10-18T18:56:11.549Z,34.70
2018-10-18T19:01:08.325Z,33.27
2018-10-18T19:06:05.098Z,32.20
2018-10-18T19:11:01.964Z,31.00
2018-10-18T19:15:58.934Z,33.33
2018-10-18T19:20:55.705Z,32.47
2018-10-18T19:25:52.459Z,34.97
2018-10-18T19:30:49.203Z,36.53
2018-10-18T19:35:46.621Z,40.03
2018-10-18T19:40:43.337Z,33.47
2018-10-18T19:45:40.483Z,38.03
2018-10-18T19:50:37.077Z,39.97
2018-10-18T19:55:33.834Z,41.13
2018-10-18T20:00:30.543Z,36.87
2018-10-18T20:05:27.385Z,36.93
2018-10-18T20:10:24.119Z,36.17
2018-10-18T20:15:20.907Z,40.80
2018-10-18T20:20:17.696Z,37.23
2018-10-18T20:25:14.501Z,34.67
2018-10-18T20:30:13.113Z,37.70
2018-10-18T20:35:10.375Z,37.10
2018-10-18T20:40:08.125Z,43.07
2018-10-18T20:45:05.645Z,44.60
2018-10-18T20:50:02.595Z,40.00
2018-10-18T20:54:59.324Z,44.73
2018-10-18T20:59:56.167Z,49.40
2018-10-18T21:04:52.851Z,45.90
2018-10-18T21:09:49.588Z,41.37
2018-10-18T21:14:46.601Z,40.97
2018-10-18T21:19:43.252Z,43.10
2018-10-18T21:24:40.042Z,43.97
2018-10-18T21:29:36.880Z,48.10
2018-10-18T21:34:33.641Z,47.40
2018-10-18T21:39:32.363Z,46.23
2018-10-18T21:44:30.753Z,45.97
2018-10-18T21:49:28.424Z,47.67
2018-10-18T21:54:26.198Z,45.83
2018-10-18T21:59:23.106Z,55.60
2018-10-18T22:04:19.897Z,52.37
2018-10-18T22:09:16.895Z,50.23
2018-10-18T22:14:13.562Z,51.73
2018-10-18T22:19:10.269Z,56.40
2018-10-18T22:24:07.977Z,52.40
2018-10-18T22:29:05.003Z,56.10
2018-10-18T22:34:01.669Z,54.07
2018-10-18T22:38:58.374Z,59.27
2018-10-18T22:43:55.104Z,67.87
2018-10-18T22:48:51.912Z,64.30
2018-10-18T22:53:48.591Z,63.83
2018-10-18T22:58:45.276Z,60.90
2018-10-18T23:03:42.116Z,61.83
2018-10-18T23:08:38.829Z,60.10
2018-10-18T23:13:35.577Z,61.23
2018-10-18T23:18:32.307Z,57.00
2018-10-18T23:23:29.024Z,61.77
2018-10-18T23:28:25.861Z,65.43
2018-10-18T23:33:22.622Z,67.03
2018-10-18T23:38:19.344Z,69.20
2018-10-18T23:43:16.148Z,70.40
2018-10-18T23:48:12.859Z,69.33
2018-10-18T23:53:09.616Z,65.27
2018-10-18T23:58:06.270Z,62.30
